createdAt,value
2023-04-04T00:01:44.980Z,49.24
2023-04-04T00:04:48.312Z,49.14
2023-04-04T00:07:51.504Z,49.26
2023-04-04T00:11:01.280Z,49.20
2023-04-04T00:14:05.605Z,49.25
2023-04-04T00:17:08.654Z,49.23
2023-04-04T00:20:12.022Z,49.36
2023-04-04T00:23:15.126Z,49.31
2023-04-04T00:26:18.451Z,49.26
2023-04-04T00:29:21.600Z,49.40
2023-04-04T00:32:24.788Z,49.49
2023-04-04T00:35:28.065Z,49.60
2023-04-04T00:38:31.159Z,49.57
2023-04-04T00:41:35.072Z,49.66
2023-04-04T00:44:38.295Z,49.57
2023-04-04T00:47:43.709Z,49.69
2023-04-04T00:50:47.341Z,49.64
2023-04-04T00:53:51.225Z,49.53
2023-04-04T00:56:55.504Z,49.68
2023-04-04T01:00:02.089Z,49.73
2023-04-04T01:03:07.752Z,49.82
2023-04-04T01:06:11.223Z,49.77
2023-04-04T01:09:14.511Z,49.76
2023-04-04T01:12:18.758Z,49.84
2023-04-04T01:15:21.933Z,49.87
2023-04-04T01:18:27.271Z,49.99
2023-04-04T01:21:30.588Z,49.99
2023-04-04T01:24:34.909Z,49.98
2023-04-04T01:27:40.719Z,49.95
2023-04-04T01:30:49.916Z,49.99
2023-04-04T01:34:09.535Z,50.09
2023-04-04T01:37:30.875Z,50.11
2023-04-04T01:40:37.573Z,50.18
2023-04-04T01:43:46.178Z,50.27
2023-04-04T01:46:54.427Z,50.23
2023-04-04T01:49:57.799Z,50.31
2023-04-04T01:53:00.984Z,50.38
2023-04-04T01:56:04.908Z,50.33
2023-04-04T01:59:10.246Z,50.34
2023-04-04T02:02:13.460Z,50.34
2023-04-04T02:05:16.689Z,50.28
2023-04-04T02:08:20.253Z,50.48
2023-04-04T02:11:25.962Z,50.46
2023-04-04T02:14:29.168Z,50.50
2023-04-04T02:17:32.671Z,50.48
2023-04-04T02:20:36.032Z,50.61
2023-04-04T02:23:39.232Z,50.63
2023-04-04T02:26:42.543Z,50.59
2023-04-04T02:29:45.678Z,50.53
2023-04-04T02:32:50.347Z,50.66
2023-04-04T02:35:59.089Z,50.68
2023-04-04T02:39:02.511Z,50.66
2023-04-04T02:42:06.791Z,50.76
2023-04-04T02:45:11.529Z,50.80
2023-04-04T02:48:14.913Z,50.89
2023-04-04T02:51:21.075Z,50.80
2023-04-04T02:54:24.177Z,50.77
2023-04-04T02:57:27.675Z,50.80
2023-04-04T03:00:30.828Z,50.90
2023-04-04T03:03:34.089Z,50.85
2023-04-04T03:06:37.753Z,50.97
2023-04-04T03:09:45.129Z,50.90
2023-04-04T03:12:48.548Z,51.02
2023-04-04T03:15:59.088Z,51.18
2023-04-04T03:19:03.499Z,51.13
2023-04-04T03:22:07.102Z,51.19
2023-04-04T03:25:10.750Z,51.17
2023-04-04T03:28:13.829Z,51.13
2023-04-04T03:31:17.768Z,51.24
2023-04-04T03:34:20.956Z,51.19
2023-04-04T03:37:26.451Z,51.28
2023-04-04T03:40:29.895Z,51.36
2023-04-04T03:43:33.386Z,51.30
2023-04-04T03:46:36.675Z,51.40
2023-04-04T03:49:39.936Z,51.35
2023-04-04T03:52:43.153Z,51.46
2023-04-04T03:55:46.228Z,51.46
2023-04-04T03:58:50.096Z,51.42
2023-04-04T04:01:55.849Z,51.32
2023-04-04T04:04:59.516Z,51.46
2023-04-04T04:08:02.754Z,51.54
2023-04-04T04:11:09.066Z,51.47
2023-04-04T04:14:13.177Z,51.48
2023-04-04T04:17:17.019Z,51.56
2023-04-04T04:20:21.036Z,51.59
2023-04-04T04:23:26.341Z,51.61
2023-04-04T04:26:29.628Z,51.63
2023-04-04T04:29:33.046Z,51.65
2023-04-04T04:32:36.216Z,51.68
2023-04-04T04:35:42.660Z,51.65
2023-04-04T04:38:46.023Z,51.74
2023-04-04T04:41:51.087Z,51.73
2023-04-04T04:44:54.597Z,51.75
2023-04-04T04:47:58.628Z,51.92
2023-04-04T04:51:02.377Z,51.90
2023-04-04T04:54:14.946Z,51.90
2023-04-04T04:57:19.738Z,51.92
2023-04-04T05:00:23.478Z,51.98
2023-04-04T05:03:27.898Z,51.94
2023-04-04T05:06:31.103Z,51.88
2023-04-04T05:09:34.464Z,51.82
2023-04-04T05:12:43.653Z,51.90
2023-04-04T05:15:49.002Z,51.87
2023-04-04T05:18:52.697Z,51.86
2023-04-04T05:21:55.839Z,51.81
2023-04-04T05:25:07.380Z,51.91
2023-04-04T05:28:11.781Z,51.98
2023-04-04T05:31:15.736Z,51.97
2023-04-04T05:34:19.231Z,51.84
2023-04-04T05:37:23.591Z,51.90
2023-04-04T05:40:27.939Z,51.78
2023-04-04T05:43:39.411Z,51.64
2023-04-04T05:46:45.355Z,51.63
2023-04-04T05:49:49.143Z,51.60
2023-04-04T05:52:55.510Z,51.54
2023-04-04T05:55:58.900Z,51.35
2023-04-04T05:59:05.990Z,51.26
2023-04-04T06:02:12.302Z,51.14
2023-04-04T06:05:19.176Z,50.89
2023-04-04T06:08:22.309Z,50.67
2023-04-04T06:11:26.327Z,50.55
2023-04-04T06:14:37.851Z,50.65
2023-04-04T06:17:42.577Z,50.58
2023-04-04T06:20:46.380Z,50.33
2023-04-04T06:23:51.963Z,50.33
2023-04-04T06:26:55.049Z,50.22
2023-04-04T06:30:00.790Z,50.32
2023-04-04T06:33:04.919Z,50.10
2023-04-04T06:36:08.705Z,49.89
2023-04-04T06:39:11.846Z,49.55
2023-04-04T06:42:15.033Z,49.19
2023-04-04T06:45:27.696Z,49.17
2023-04-04T06:48:30.724Z,49.10
2023-04-04T06:51:34.576Z,49.02
2023-04-04T06:54:37.911Z,49.17
2023-04-04T06:57:41.392Z,49.08
2023-04-04T07:00:44.597Z,49.02
2023-04-04T07:03:47.813Z,49.11
2023-04-04T07:06:50.940Z,48.96
2023-04-04T07:09:54.194Z,48.72
2023-04-04T07:12:57.552Z,48.61
2023-04-04T07:16:02.163Z,48.49
2023-04-04T07:19:05.578Z,48.42
2023-04-04T07:22:09.801Z,48.21
2023-04-04T07:25:14.696Z,48.35
2023-04-04T07:28:18.237Z,48.62
2023-04-04T07:31:22.190Z,48.91
2023-04-04T07:34:26.675Z,48.91
2023-04-04T07:37:29.979Z,48.34
2023-04-04T07:40:33.232Z,48.07
2023-04-04T07:43:36.252Z,47.77
2023-04-04T07:46:39.464Z,47.62
2023-04-04T07:49:42.557Z,47.56
2023-04-04T07:52:52.355Z,47.57
2023-04-04T07:55:55.608Z,47.60
2023-04-04T07:58:58.786Z,47.25
2023-04-04T08:02:01.917Z,46.99
2023-04-04T08:05:05.896Z,47.00
2023-04-04T08:08:09.104Z,47.13
2023-04-04T08:11:12.388Z,46.91
2023-04-04T08:14:15.570Z,46.42
2023-04-04T08:17:19.197Z,46.26
2023-04-04T08:20:22.364Z,46.18
2023-04-04T08:23:25.618Z,46.02
2023-04-04T08:26:29.265Z,45.94
2023-04-04T08:29:33.127Z,46.00
2023-04-04T08:32:36.633Z,45.84
2023-04-04T08:35:39.940Z,45.85
2023-04-04T08:38:42.987Z,45.75
2023-04-04T08:41:46.599Z,45.65
2023-04-04T08:44:53.463Z,45.64
2023-04-04T08:47:59.901Z,45.78
2023-04-04T08:51:04.743Z,45.96
2023-04-04T08:54:09.440Z,45.91
2023-04-04T08:57:13.647Z,45.79
2023-04-04T09:00:20.912Z,45.67
2023-04-04T09:03:29.130Z,45.67
2023-04-04T09:06:33.577Z,45.27
2023-04-04T09:09:38.890Z,44.83
2023-04-04T09:12:47.434Z,44.79
2023-04-04T09:15:54.267Z,44.79
2023-04-04T09:18:57.532Z,44.72
2023-04-04T09:22:02.098Z,44.61
2023-04-04T09:25:08.730Z,44.46
2023-04-04T09:28:16.269Z,44.23
2023-04-04T09:31:20.219Z,44.30
2023-04-04T09:34:26.282Z,44.54
2023-04-04T09:37:29.635Z,44.68
2023-04-04T09:40:39.066Z,44.47
2023-04-04T09:43:46.318Z,44.21
2023-04-04T09:46:52.247Z,44.19
2023-04-04T09:49:59.740Z,43.97
2023-04-04T09:53:02.961Z,43.72
2023-04-04T09:56:06.997Z,43.64
2023-04-04T09:59:13.757Z,43.75
2023-04-04T10:02:19.209Z,43.70
2023-04-04T10:05:23.528Z,43.67
2023-04-04T10:08:30.508Z,43.31
2023-04-04T10:11:36.207Z,43.27
2023-04-04T10:14:40.095Z,43.25
2023-04-04T10:17:45.817Z,43.38
2023-04-04T10:20:50.646Z,43.25
2023-04-04T10:23:54.550Z,43.04
2023-04-04T10:26:58.075Z,43.09
2023-04-04T10:30:01.629Z,43.32
2023-04-04T10:33:15.523Z,43.31
2023-04-04T10:36:24.646Z,43.37
2023-04-04T10:39:36.407Z,43.57
2023-04-04T10:42:43.329Z,43.78
2023-04-04T10:45:47.953Z,43.70
2023-04-04T10:48:52.244Z,43.38
2023-04-04T10:51:57.413Z,42.85
2023-04-04T10:55:06.187Z,42.62
2023-04-04T10:58:10.997Z,42.39
2023-04-04T11:01:16.433Z,42.20
2023-04-04T11:04:23.684Z,42.24
2023-04-04T11:07:34.240Z,42.19
2023-04-04T11:10:38.226Z,42.40
2023-04-04T11:13:59.889Z,42.34
2023-04-04T11:17:06.766Z,42.43
2023-04-04T11:20:11.696Z,42.51
2023-04-04T11:23:22.893Z,42.56
2023-04-04T11:26:26.414Z,42.40
2023-04-04T11:29:51.648Z,42.36
2023-04-04T11:33:06.935Z,42.19
2023-04-04T11:36:35.930Z,42.27
2023-04-04T11:39:50.776Z,42.61
2023-04-04T11:42:56.172Z,42.69
2023-04-04T11:46:08.999Z,42.49
2023-04-04T11:49:12.281Z,42.37
2023-04-04T11:52:20.371Z,42.33
2023-04-04T11:55:23.847Z,42.25
2023-04-04T11:58:27.539Z,42.40
2023-04-04T12:01:31.540Z,42.29
2023-04-04T12:04:37.312Z,42.29
2023-04-04T12:07:41.648Z,42.29
2023-04-04T12:10:45.139Z,42.39
2023-04-04T12:13:51.248Z,42.42
2023-04-04T12:16:56.799Z,42.14
2023-04-04T12:20:00.304Z,42.03
2023-04-04T12:23:03.777Z,41.70
2023-04-04T12:26:09.498Z,41.53
2023-04-04T12:29:15.378Z,41.49
2023-04-04T12:32:18.811Z,41.36
2023-04-04T12:35:22.739Z,41.23
2023-04-04T12:38:26.899Z,41.38
2023-04-04T12:41:30.685Z,41.26
2023-04-04T12:44:40.296Z,41.07
2023-04-04T12:47:54.584Z,41.07
2023-04-04T12:50:59.728Z,40.79
2023-04-04T12:54:05.306Z,40.77
2023-04-04T12:57:08.633Z,40.90
2023-04-04T13:00:14.025Z,40.90
2023-04-04T13:03:17.764Z,40.69
2023-04-04T13:06:21.749Z,41.10
2023-04-04T13:09:25.395Z,41.02
2023-04-04T13:12:58.902Z,40.97
2023-04-04T13:16:08.150Z,40.95
2023-04-04T13:19:11.725Z,40.88
2023-04-04T13:22:15.603Z,40.85
2023-04-04T13:25:18.825Z,41.16
2023-04-04T13:28:22.240Z,41.04
2023-04-04T13:31:25.579Z,40.89
2023-04-04T13:34:28.866Z,40.87
2023-04-04T13:37:32.177Z,41.00
2023-04-04T13:40:35.317Z,41.12
2023-04-04T13:43:38.513Z,41.01
2023-04-04T13:46:42.483Z,41.01
2023-04-04T13:49:45.507Z,41.11
2023-04-04T13:52:48.615Z,41.24
2023-04-04T13:56:17.103Z,41.21
2023-04-04T13:59:15.326Z,41.08
2023-04-04T14:02:18.486Z,41.06
2023-04-04T14:05:22.446Z,41.18
2023-04-04T14:08:25.696Z,41.23
2023-04-04T14:11:31.401Z,41.28
2023-04-04T14:14:35.738Z,41.27
2023-04-04T14:17:41.038Z,41.24
2023-04-04T14:20:44.395Z,41.18
2023-04-04T14:23:47.576Z,41.17
2023-04-04T14:26:50.960Z,41.25
2023-04-04T14:29:54.060Z,41.29
2023-04-04T14:32:59.106Z,41.46
2023-04-04T14:36:02.234Z,41.28
2023-04-04T14:39:05.471Z,41.34
2023-04-04T14:42:09.086Z,41.28
2023-04-04T14:45:12.569Z,41.20
2023-04-04T14:48:15.583Z,41.20
2023-04-04T14:51:19.940Z,41.33
2023-04-04T14:54:23.100Z,41.26
2023-04-04T14:57:26.423Z,41.35
2023-04-04T15:00:30.467Z,41.17
2023-04-04T15:03:35.044Z,41.14
2023-04-04T15:06:38.168Z,41.11
2023-04-04T15:09:41.351Z,40.91
2023-04-04T15:12:44.509Z,40.86
2023-04-04T15:15:47.580Z,40.82
2023-04-04T15:18:51.184Z,40.88
2023-04-04T15:21:57.077Z,41.06
2023-04-04T15:25:00.127Z,40.94
2023-04-04T15:28:03.195Z,41.03
2023-04-04T15:31:06.235Z,40.95
2023-04-04T15:34:09.884Z,40.88
2023-04-04T15:37:12.852Z,40.94
2023-04-04T15:40:16.805Z,40.93
2023-04-04T15:43:19.781Z,40.92
2023-04-04T15:46:23.054Z,41.03
2023-04-04T15:49:26.448Z,41.03
2023-04-04T15:52:29.951Z,40.93
2023-04-04T15:55:33.211Z,40.83
2023-04-04T15:58:36.255Z,40.80
2023-04-04T16:01:40.849Z,40.83
2023-04-04T16:04:43.922Z,40.96
2023-04-04T16:07:47.086Z,40.87
2023-04-04T16:10:51.107Z,40.94
2023-04-04T16:13:54.502Z,41.06
2023-04-04T16:16:59.048Z,41.17
2023-04-04T16:20:06.356Z,41.11
2023-04-04T16:23:15.111Z,41.04
2023-04-04T16:26:18.148Z,41.15
2023-04-04T16:29:23.564Z,41.21
2023-04-04T16:32:26.838Z,41.44
2023-04-04T16:35:30.240Z,41.42
2023-04-04T16:38:33.529Z,41.36
2023-04-04T16:41:43.401Z,41.75
2023-04-04T16:44:49.786Z,45.46
2023-04-04T16:47:53.671Z,43.11
2023-04-04T16:50:56.920Z,42.26
2023-04-04T16:53:59.894Z,42.05
2023-04-04T16:57:04.140Z,41.93
2023-04-04T17:00:10.727Z,42.07
2023-04-04T17:03:13.979Z,41.96
2023-04-04T17:06:17.399Z,42.13
2023-04-04T17:09:20.461Z,42.00
2023-04-04T17:12:23.460Z,42.31
2023-04-04T17:15:26.463Z,42.35
2023-04-04T17:18:29.557Z,42.25
2023-04-04T17:21:32.775Z,42.13
2023-04-04T17:24:36.123Z,42.10
2023-04-04T17:27:39.748Z,42.34
2023-04-04T17:30:43.304Z,42.36
2023-04-04T17:33:46.534Z,42.45
2023-04-04T17:36:51.348Z,42.45
2023-04-04T17:39:54.715Z,42.46
2023-04-04T17:42:57.694Z,42.64
2023-04-04T17:46:06.492Z,42.70
2023-04-04T17:49:09.870Z,42.73
2023-04-04T17:52:18.866Z,42.62
2023-04-04T17:55:22.997Z,42.97
2023-04-04T17:58:26.181Z,43.14
2023-04-04T18:01:29.608Z,43.38
2023-04-04T18:04:32.836Z,43.61
2023-04-04T18:07:35.885Z,44.03
2023-04-04T18:10:39.128Z,43.93
2023-04-04T18:13:42.390Z,44.26
2023-04-04T18:16:45.732Z,44.45
2023-04-04T18:19:48.787Z,44.51
2023-04-04T18:22:53.780Z,44.43
2023-04-04T18:25:56.808Z,44.73
2023-04-04T18:28:59.875Z,45.18
2023-04-04T18:32:03.784Z,44.91
2023-04-04T18:35:07.337Z,45.27
2023-04-04T18:38:11.223Z,45.28
2023-04-04T18:41:17.391Z,45.29
2023-04-04T18:44:21.718Z,45.48
2023-04-04T18:47:25.873Z,45.87
2023-04-04T18:50:28.920Z,46.07
2023-04-04T18:53:31.944Z,46.08
2023-04-04T18:56:37.115Z,46.17
2023-04-04T18:59:41.473Z,46.27
2023-04-04T19:02:45.085Z,46.55
2023-04-04T19:05:49.321Z,46.57
2023-04-04T19:08:56.691Z,46.66
2023-04-04T19:12:00.256Z,46.95
2023-04-04T19:15:03.800Z,47.15
2023-04-04T19:18:06.835Z,47.12
2023-04-04T19:21:11.009Z,47.18
2023-04-04T19:24:15.025Z,47.10
2023-04-04T19:27:18.075Z,46.83
2023-04-04T19:30:52.616Z,46.78
2023-04-04T19:33:56.718Z,47.12
2023-04-04T19:36:59.773Z,47.39
2023-04-04T19:40:14.777Z,47.47
2023-04-04T19:43:22.594Z,47.37
2023-04-04T19:46:29.114Z,47.38
2023-04-04T19:49:33.558Z,47.41
2023-04-04T19:52:36.721Z,47.41
2023-04-04T19:55:40.495Z,47.73
2023-04-04T19:58:44.831Z,47.70
2023-04-04T20:04:54.291Z,47.79
2023-04-04T20:07:57.402Z,48.17
2023-04-04T20:11:00.680Z,48.33
2023-04-04T20:14:09.240Z,48.34
2023-04-04T20:17:12.660Z,48.43
2023-04-04T20:20:50.445Z,48.59
2023-04-04T20:23:56.219Z,48.63
2023-04-04T20:26:59.780Z,48.43
2023-04-04T20:30:02.895Z,48.63
2023-04-04T20:33:32.298Z,48.78
2023-04-04T20:36:41.901Z,48.91
2023-04-04T20:40:14.717Z,48.94
2023-04-04T20:43:17.720Z,49.25
2023-04-04T20:46:22.465Z,49.28
2023-04-04T20:49:25.565Z,49.46
2023-04-04T20:52:28.550Z,49.44
2023-04-04T20:55:34.189Z,49.48
2023-04-04T20:58:37.209Z,49.37
2023-04-04T21:01:40.304Z,49.47
2023-04-04T21:04:45.716Z,49.54
2023-04-04T21:07:48.792Z,49.63
2023-04-04T21:10:53.938Z,49.81
2023-04-04T21:13:57.212Z,49.80
2023-04-04T21:17:00.270Z,50.01
2023-04-04T21:20:16.910Z,49.97
2023-04-04T21:23:26.189Z,50.12
2023-04-04T21:26:35.361Z,50.15
2023-04-04T21:29:38.389Z,50.17
2023-04-04T21:32:41.361Z,50.34
2023-04-04T21:35:47.682Z,50.32
2023-04-04T21:38:52.273Z,50.17
2023-04-04T21:42:05.966Z,50.29
2023-04-04T21:45:11.365Z,50.34
2023-04-04T21:48:14.424Z,50.35
2023-04-04T21:51:17.651Z,50.44
2023-04-04T21:54:20.673Z,50.43
2023-04-04T21:57:24.020Z,50.55
2023-04-04T22:00:27.707Z,50.51
2023-04-04T22:03:30.719Z,50.46
2023-04-04T22:06:33.918Z,50.67
2023-04-04T22:09:40.471Z,50.70
2023-04-04T22:12:45.872Z,50.81
2023-04-04T22:15:49.882Z,50.81
2023-04-04T22:18:52.870Z,50.96
2023-04-04T22:21:58.678Z,51.01
2023-04-04T22:25:04.601Z,51.06
2023-04-04T22:28:08.625Z,51.08
2023-04-04T22:31:11.968Z,50.95
2023-04-04T22:34:15.542Z,51.29
2023-04-04T22:37:20.272Z,51.20
2023-04-04T22:40:23.942Z,51.37
2023-04-04T22:43:26.914Z,51.23
2023-04-04T22:46:31.415Z,51.23
2023-04-04T22:49:37.806Z,51.40
2023-04-04T22:52:43.632Z,51.28
2023-04-04T22:55:46.594Z,51.32
2023-04-04T22:58:49.685Z,51.19
2023-04-04T23:01:53.001Z,51.24
2023-04-04T23:04:58.504Z,51.33
2023-04-04T23:08:03.467Z,51.43
2023-04-04T23:11:06.481Z,51.46
2023-04-04T23:14:09.850Z,51.68
2023-04-04T23:17:13.346Z,51.69
2023-04-04T23:20:18.233Z,51.68
2023-04-04T23:23:21.522Z,51.84
2023-04-04T23:26:24.577Z,51.94
2023-04-04T23:29:27.962Z,52.10
2023-04-04T23:32:32.138Z,51.96
2023-04-04T23:35:35.206Z,52.13
2023-04-04T23:38:38.180Z,52.21
2023-04-04T23:41:41.319Z,52.25
2023-04-04T23:44:44.839Z,52.21
2023-04-04T23:47:47.881Z,52.30
2023-04-04T23:50:54.439Z,52.29
2023-04-04T23:53:59.137Z,52.40
2023-04-04T23:57:02.649Z,52.54
